Time;durP1;ratioP1;P1;durP2;ratioP2;P2;SDS_P1;SDS_P2;PMS_P1;PMS_P2;Temp;Humidity;BMP_temperature;BMP_pressure;BME280_temperature;BME280_humidity;BME280_pressure;Samples;Min_cycle;Max_cycle;Signal;HPM_P1;HPM_P2
2023/03/27 00:00:57;;;;;;;6.37;2.33;;;;;;;;;;5012411;28;20606;-56
2023/03/27 00:03:24;;;;;;;7.00;2.37;;;;;;;;;;5007211;28;20236;-56
2023/03/27 00:05:58;;;;;;;5.07;2.47;;;;;;;;;;5003822;28;20260;-56
2023/03/27 00:08:25;;;;;;;7.03;2.30;;;;;;;;;;5007770;28;20213;-56
2023/03/27 00:10:52;;;;;;;5.23;2.20;;;;;;;;;;5008282;28;20915;-56
2023/03/27 00:13:18;;;;;;;5.30;2.20;;;;;;;;;;5005190;28;20209;-56
2023/03/27 00:15:45;;;;;;;5.00;2.50;;;;;;;;;;5005194;28;20206;-56
2023/03/27 00:18:12;;;;;;;4.97;1.90;;;;;;;;;;5006252;28;20178;-56
2023/03/27 00:20:38;;;;;;;8.27;2.60;;;;;;;;;;5006966;28;21013;-56
2023/03/27 00:23:05;;;;;;;6.70;2.30;;;;;;;;;;5008025;28;20190;-56
2023/03/27 00:25:31;;;;;;;3.53;2.23;;;;;;;;;;5003057;28;20235;-56
2023/03/27 00:27:58;;;;;;;5.10;1.80;;;;;;;;;;5006052;28;20721;-57
2023/03/27 00:30:27;;;;;;;7.80;2.53;;;;;;;;;;5006766;28;20182;-56
2023/03/27 00:32:56;;;;;;;2.60;2.10;;;;;;;;;;5006211;28;20213;-56
2023/03/27 00:35:23;;;;;;;4.40;2.60;;;;;;;;;;5012177;28;20178;-56
2023/03/27 00:37:49;;;;;;;3.57;2.53;;;;;;;;;;5012808;28;20182;-56
2023/03/27 00:40:18;;;;;;;7.10;2.30;;;;;;;;;;5011700;28;20717;-56
2023/03/27 00:42:47;;;;;;;5.17;2.50;;;;;;;;;;5013604;28;20185;-56
2023/03/27 00:45:17;;;;;;;7.87;2.40;;;;;;;;;;5013161;28;20321;-56
2023/03/27 00:47:44;;;;;;;4.43;2.33;;;;;;;;;;5014737;28;20642;-56
2023/03/27 00:50:12;;;;;;;3.77;2.70;;;;;;;;;;5013219;28;20531;-56
2023/03/27 00:52:40;;;;;;;6.17;2.60;;;;;;;;;;5014845;28;20509;-56
2023/03/27 00:55:13;;;;;;;3.53;2.40;;;;;;;;;;5018061;28;20167;-56
2023/03/27 00:57:39;;;;;;;6.83;2.67;;;;;;;;;;5012927;28;20217;-56
2023/03/27 01:00:11;;;;;;;6.80;2.37;;;;;;;;;;5011715;28;20174;-56
2023/03/27 01:02:38;;;;;;;5.23;2.80;;;;;;;;;;5014469;28;20249;-56
2023/03/27 01:05:05;;;;;;;6.47;2.70;;;;;;;;;;5012739;28;20186;-56
2023/03/27 01:07:31;;;;;;;7.60;3.33;;;;;;;;;;5014206;28;20513;-56
2023/03/27 01:09:57;;;;;;;3.87;2.67;;;;;;;;;;5015010;28;20178;-56
2023/03/27 01:12:30;;;;;;;6.77;3.07;;;;;;;;;;5012862;28;20209;-56
2023/03/27 01:14:56;;;;;;;7.27;3.17;;;;;;;;;;5010773;28;20321;-56
2023/03/27 01:17:40;;;;;;;7.50;3.00;;;;;;;;;;5020072;28;20170;-56
2023/03/27 01:20:08;;;;;;;5.53;3.23;;;;;;;;;;5012522;28;20178;-56
2023/03/27 01:22:53;;;;;;;3.73;2.80;;;;;;;;;;5015086;28;20186;-56
2023/03/27 01:25:25;;;;;;;4.57;2.13;;;;;;;;;;5014072;28;20174;-56
2023/03/27 01:28:03;;;;;;;4.77;2.63;;;;;;;;;;5012604;28;20240;-56
2023/03/27 01:30:34;;;;;;;5.70;2.63;;;;;;;;;;5003066;28;20178;-57
2023/03/27 01:33:03;;;;;;;9.20;3.20;;;;;;;;;;5020380;28;20635;-60
2023/03/27 01:35:38;;;;;;;6.37;3.10;;;;;;;;;;5010893;28;20193;-56
2023/03/27 01:38:04;;;;;;;6.50;2.57;;;;;;;;;;5011380;28;20174;-56
2023/03/27 01:40:39;;;;;;;4.93;2.27;;;;;;;;;;5011453;28;20181;-56
2023/03/27 01:43:05;;;;;;;4.77;2.80;;;;;;;;;;5009189;28;20207;-56
2023/03/27 01:45:34;;;;;;;5.00;2.70;;;;;;;;;;5011477;28;20654;-56
2023/03/27 01:48:04;;;;;;;4.40;2.53;;;;;;;;;;5008241;28;20190;-56
2023/03/27 01:50:30;;;;;;;3.93;2.23;;;;;;;;;;5008288;28;20170;-56
2023/03/27 01:53:00;;;;;;;6.30;2.97;;;;;;;;;;5008128;28;20212;-56
2023/03/27 01:55:29;;;;;;;7.83;3.30;;;;;;;;;;5011956;28;20178;-56
2023/03/27 01:57:59;;;;;;;6.27;2.83;;;;;;;;;;5006015;28;20182;-60
2023/03/27 02:00:26;;;;;;;6.83;2.63;;;;;;;;;;5008012;28;20178;-56
2023/03/27 02:02:58;;;;;;;5.90;2.67;;;;;;;;;;5009731;28;20179;-57
2023/03/27 02:05:28;;;;;;;5.80;3.10;;;;;;;;;;5010222;28;20186;-56
2023/03/27 02:07:57;;;;;;;4.77;2.63;;;;;;;;;;5008695;28;20233;-56
2023/03/27 02:10:26;;;;;;;7.10;2.53;;;;;;;;;;5009810;28;20257;-56
2023/03/27 02:12:58;;;;;;;6.03;2.90;;;;;;;;;;5006494;28;20215;-56
2023/03/27 02:15:27;;;;;;;4.43;2.43;;;;;;;;;;5009882;28;20182;-56
2023/03/27 02:18:03;;;;;;;3.30;1.80;;;;;;;;;;5008909;28;20192;-56
2023/03/27 02:20:29;;;;;;;7.00;2.47;;;;;;;;;;5006708;28;20556;-56
2023/03/27 02:22:59;;;;;;;6.57;2.53;;;;;;;;;;5007956;28;20222;-56
2023/03/27 02:25:28;;;;;;;4.00;2.53;;;;;;;;;;5015178;28;20235;-56
2023/03/27 02:28:14;;;;;;;3.90;2.30;;;;;;;;;;5009634;28;20193;-56
2023/03/27 02:30:53;;;;;;;6.63;2.67;;;;;;;;;;5006765;28;20206;-56
2023/03/27 02:33:38;;;;;;;6.20;2.30;;;;;;;;;;5013108;28;20552;-56
2023/03/27 02:36:19;;;;;;;5.67;2.17;;;;;;;;;;5007654;28;20661;-56
2023/03/27 02:38:52;;;;;;;5.07;2.20;;;;;;;;;;5008965;28;20325;-56
2023/03/27 02:41:25;;;;;;;4.80;1.97;;;;;;;;;;5005056;28;20541;-56
2023/03/27 02:43:56;;;;;;;4.73;2.20;;;;;;;;;;5008472;28;20233;-56
2023/03/27 02:46:32;;;;;;;4.17;2.40;;;;;;;;;;5009662;28;20179;-56
2023/03/27 02:49:03;;;;;;;5.80;1.93;;;;;;;;;;5009228;28;20179;-56
2023/03/27 02:51:36;;;;;;;5.33;1.63;;;;;;;;;;5007622;28;20186;-56
2023/03/27 02:54:08;;;;;;;7.07;2.20;;;;;;;;;;5008616;28;20252;-56
2023/03/27 02:56:39;;;;;;;2.17;1.80;;;;;;;;;;5004241;28;20266;-56
2023/03/27 02:59:08;;;;;;;3.53;2.03;;;;;;;;;;5006499;28;20185;-56
2023/03/27 03:01:36;;;;;;;3.97;1.90;;;;;;;;;;5004356;28;20189;-56
2023/03/27 03:04:17;;;;;;;7.20;1.80;;;;;;;;;;5008961;28;20258;-56
2023/03/27 03:06:44;;;;;;;4.67;2.43;;;;;;;;;;5007900;28;20186;-56
2023/03/27 03:09:12;;;;;;;6.23;1.70;;;;;;;;;;5012711;28;20187;-56
2023/03/27 03:11:45;;;;;;;4.67;1.70;;;;;;;;;;5010867;28;20210;-56
2023/03/27 03:14:11;;;;;;;5.67;2.30;;;;;;;;;;5008094;28;20210;-56
2023/03/27 03:16:37;;;;;;;4.27;3.97;;;;;;;;;;5009154;28;20228;-56
2023/03/27 03:19:03;;;;;;;1.53;1.43;;;;;;;;;;5010450;28;20186;-55
2023/03/27 03:21:30;;;;;;;5.47;1.93;;;;;;;;;;5007370;28;20225;-56
2023/03/27 03:23:56;;;;;;;3.60;1.83;;;;;;;;;;5007327;28;20690;-56
2023/03/27 03:26:23;;;;;;;4.13;1.60;;;;;;;;;;5010476;28;20205;-56
2023/03/27 03:28:49;;;;;;;2.20;2.00;;;;;;;;;;5008855;28;20201;-56
2023/03/27 03:31:15;;;;;;;5.03;2.23;;;;;;;;;;5007604;28;20261;-56
2023/03/27 03:33:41;;;;;;;2.90;2.27;;;;;;;;;;5004955;28;20238;-56
2023/03/27 03:36:08;;;;;;;3.43;1.73;;;;;;;;;;5008184;28;20646;-56
2023/03/27 03:38:34;;;;;;;4.23;2.00;;;;;;;;;;5008707;28;20179;-56
2023/03/27 03:41:00;;;;;;;3.40;1.70;;;;;;;;;;5007470;28;20546;-56
2023/03/27 03:43:27;;;;;;;2.63;1.70;;;;;;;;;;5008490;28;20178;-56
2023/03/27 03:45:54;;;;;;;3.80;2.23;;;;;;;;;;5007215;28;20272;-55
2023/03/27 03:48:21;;;;;;;2.23;1.80;;;;;;;;;;5008719;28;20601;-56
2023/03/27 03:50:47;;;;;;;5.50;2.53;;;;;;;;;;5008635;28;20191;-56
2023/03/27 03:53:15;;;;;;;8.37;1.93;;;;;;;;;;5009578;28;20201;-56
2023/03/27 03:55:41;;;;;;;4.07;1.67;;;;;;;;;;5009219;28;20181;-56
2023/03/27 03:58:08;;;;;;;9.20;2.10;;;;;;;;;;5007807;28;20178;-56
2023/03/27 04:00:37;;;;;;;4.90;2.27;;;;;;;;;;5008290;28;20182;-56
2023/03/27 04:03:03;;;;;;;1.87;1.50;;;;;;;;;;5006077;28;20190;-56
2023/03/27 04:05:30;;;;;;;5.53;2.20;;;;;;;;;;5006228;28;20186;-56
2023/03/27 04:08:01;;;;;;;4.17;1.60;;;;;;;;;;5006782;28;20170;-56
2023/03/27 04:10:27;;;;;;;4.63;2.10;;;;;;;;;;5008877;28;20186;-56
2023/03/27 04:12:54;;;;;;;4.07;1.60;;;;;;;;;;5007512;28;20179;-56
2023/03/27 04:15:20;;;;;;;3.97;1.60;;;;;;;;;;5004333;28;20261;-56
2023/03/27 04:17:49;;;;;;;4.63;1.83;;;;;;;;;;5005372;28;20197;-56
2023/03/27 04:20:16;;;;;;;4.27;1.93;;;;;;;;;;5007929;28;20226;-56
2023/03/27 04:22:45;;;;;;;4.07;2.30;;;;;;;;;;5009143;28;20179;-56
2023/03/27 04:25:12;;;;;;;7.20;2.97;;;;;;;;;;5007063;28;20171;-55
2023/03/27 04:27:39;;;;;;;3.57;1.53;;;;;;;;;;5007227;28;20179;-56
2023/03/27 04:30:07;;;;;;;3.83;1.80;;;;;;;;;;5008797;28;20196;-56
2023/03/27 04:32:33;;;;;;;4.13;1.87;;;;;;;;;;5007270;28;20182;-55
2023/03/27 04:34:59;;;;;;;5.43;1.80;;;;;;;;;;5007654;28;20190;-56
2023/03/27 04:37:26;;;;;;;6.10;1.70;;;;;;;;;;5006432;28;20642;-56
2023/03/27 04:39:52;;;;;;;5.93;2.17;;;;;;;;;;5008534;28;20223;-56
2023/03/27 04:42:22;;;;;;;2.20;1.70;;;;;;;;;;5011805;28;20545;-56
2023/03/27 04:44:49;;;;;;;1.80;1.47;;;;;;;;;;5008482;28;20704;-56
2023/03/27 04:47:15;;;;;;;3.70;1.73;;;;;;;;;;5007690;28;20230;-56
2023/03/27 04:49:49;;;;;;;4.00;1.70;;;;;;;;;;5009937;28;20882;-56
2023/03/27 04:52:15;;;;;;;3.00;2.00;;;;;;;;;;5008590;28;20182;-56
2023/03/27 04:54:41;;;;;;;3.20;1.87;;;;;;;;;;5003466;28;20650;-56
2023/03/27 04:57:08;;;;;;;3.17;1.40;;;;;;;;;;5001232;28;21657;-56
2023/03/27 04:59:35;;;;;;;2.30;1.80;;;;;;;;;;5001691;28;20206;-56
2023/03/27 05:02:02;;;;;;;4.97;2.00;;;;;;;;;;5001124;28;20238;-55
2023/03/27 05:04:28;;;;;;;3.77;1.77;;;;;;;;;;5002830;28;20188;-55
2023/03/27 05:06:55;;;;;;;2.87;1.57;;;;;;;;;;5005874;28;20182;-56
2023/03/27 05:09:21;;;;;;;5.53;1.83;;;;;;;;;;5007059;28;20199;-56
2023/03/27 05:11:48;;;;;;;3.23;2.17;;;;;;;;;;5006722;28;20676;-56
2023/03/27 05:14:18;;;;;;;2.60;2.00;;;;;;;;;;5005434;28;20225;-56
2023/03/27 05:16:44;;;;;;;4.40;2.00;;;;;;;;;;5005130;28;20781;-56
2023/03/27 05:19:11;;;;;;;3.10;1.80;;;;;;;;;;5003187;28;20175;-56
2023/03/27 05:21:38;;;;;;;4.67;1.80;;;;;;;;;;5007075;28;20276;-56
2023/03/27 05:24:04;;;;;;;3.97;1.90;;;;;;;;;;5010923;28;20175;-56
2023/03/27 05:26:31;;;;;;;3.27;1.70;;;;;;;;;;5007676;28;20178;-56
2023/03/27 05:28:58;;;;;;;6.13;2.07;;;;;;;;;;5008634;28;20205;-56
2023/03/27 05:31:24;;;;;;;5.67;2.00;;;;;;;;;;5009765;28;20185;-56
2023/03/27 05:33:51;;;;;;;4.27;2.10;;;;;;;;;;5009279;28;20208;-56
2023/03/27 05:36:28;;;;;;;2.63;2.03;;;;;;;;;;5009459;28;20178;-55
2023/03/27 05:38:55;;;;;;;4.67;1.90;;;;;;;;;;5014366;28;20873;-56
2023/03/27 05:41:21;;;;;;;3.50;2.00;;;;;;;;;;5003616;28;20622;-56
2023/03/27 05:43:47;;;;;;;3.80;1.67;;;;;;;;;;5007189;28;20273;-56
2023/03/27 05:46:13;;;;;;;7.93;2.37;;;;;;;;;;5010493;28;20269;-57
2023/03/27 05:48:39;;;;;;;2.97;2.00;;;;;;;;;;5008678;28;20221;-56
2023/03/27 05:51:05;;;;;;;3.47;2.07;;;;;;;;;;5010124;28;20560;-57
2023/03/27 05:53:31;;;;;;;5.97;2.30;;;;;;;;;;5008190;28;20616;-57
2023/03/27 05:55:58;;;;;;;2.10;1.60;;;;;;;;;;5010250;28;20186;-57
2023/03/27 05:58:24;;;;;;;5.37;1.87;;;;;;;;;;5008883;28;20178;-57
2023/03/27 06:00:50;;;;;;;2.73;1.70;;;;;;;;;;5007051;28;20678;-56
2023/03/27 06:03:18;;;;;;;2.00;1.60;;;;;;;;;;5006260;28;20262;-57
2023/03/27 06:05:44;;;;;;;5.30;1.93;;;;;;;;;;5000532;28;20655;-56
2023/03/27 06:08:10;;;;;;;2.70;1.70;;;;;;;;;;5001619;28;20210;-56
2023/03/27 06:10:39;;;;;;;3.53;2.30;;;;;;;;;;5006023;28;20673;-56
2023/03/27 06:13:07;;;;;;;5.37;1.80;;;;;;;;;;5005706;28;20206;-56
2023/03/27 06:15:34;;;;;;;2.77;2.07;;;;;;;;;;5009231;28;20188;-56
2023/03/27 06:18:00;;;;;;;3.43;2.03;;;;;;;;;;5007789;28;20622;-56
2023/03/27 06:20:26;;;;;;;2.50;1.83;;;;;;;;;;5001912;28;20632;-56
2023/03/27 06:23:00;;;;;;;4.90;1.90;;;;;;;;;;5008114;28;20224;-56
2023/03/27 06:25:30;;;;;;;6.63;2.13;;;;;;;;;;5002237;28;20292;-56
2023/03/27 06:27:57;;;;;;;3.80;1.97;;;;;;;;;;5008036;28;20266;-56
2023/03/27 06:30:24;;;;;;;3.07;1.80;;;;;;;;;;5016442;28;20548;-56
2023/03/27 06:32:51;;;;;;;5.63;1.70;;;;;;;;;;5016887;28;20185;-56
2023/03/27 06:35:18;;;;;;;3.63;1.60;;;;;;;;;;5010982;28;20183;-56
2023/03/27 06:37:45;;;;;;;3.90;2.17;;;;;;;;;;5011376;28;20257;-56
2023/03/27 06:40:22;;;;;;;2.53;2.10;;;;;;;;;;5015709;28;20177;-56
2023/03/27 06:42:52;;;;;;;1.60;1.33;;;;;;;;;;5011117;28;20644;-56
2023/03/27 06:45:18;;;;;;;2.93;1.80;;;;;;;;;;5011252;28;20575;-56
2023/03/27 06:47:49;;;;;;;2.30;1.47;;;;;;;;;;5011081;28;20720;-56
2023/03/27 06:50:15;;;;;;;3.63;2.13;;;;;;;;;;5018823;28;20615;-56
2023/03/27 06:52:41;;;;;;;3.17;1.50;;;;;;;;;;5011533;28;20187;-56
2023/03/27 06:55:08;;;;;;;5.27;1.87;;;;;;;;;;5021811;28;20713;-57
2023/03/27 06:57:35;;;;;;;2.33;1.73;;;;;;;;;;5002434;28;20629;-56
2023/03/27 07:00:01;;;;;;;4.83;1.70;;;;;;;;;;5006908;28;20689;-56
2023/03/27 07:02:28;;;;;;;5.97;1.97;;;;;;;;;;5010363;28;20245;-56
2023/03/27 07:04:54;;;;;;;1.50;1.40;;;;;;;;;;5009889;28;20186;-57
2023/03/27 07:07:20;;;;;;;2.67;1.83;;;;;;;;;;5010521;28;20182;-56
2023/03/27 07:09:48;;;;;;;2.50;1.67;;;;;;;;;;5011734;28;20559;-57
2023/03/27 07:12:14;;;;;;;3.60;1.77;;;;;;;;;;5019956;28;20562;-56
2023/03/27 07:14:40;;;;;;;1.57;1.37;;;;;;;;;;5010506;28;20695;-56
2023/03/27 07:17:07;;;;;;;3.67;1.50;;;;;;;;;;5010179;28;20174;-56
2023/03/27 07:19:33;;;;;;;2.47;1.80;;;;;;;;;;5008573;28;20190;-56
2023/03/27 07:21:59;;;;;;;3.80;1.90;;;;;;;;;;5006949;28;20226;-56
2023/03/27 07:24:25;;;;;;;3.97;1.70;;;;;;;;;;5013970;28;20569;-56
2023/03/27 07:26:51;;;;;;;2.77;1.50;;;;;;;;;;5009915;28;20185;-56
2023/03/27 07:29:17;;;;;;;2.87;2.00;;;;;;;;;;5010363;28;20205;-56
2023/03/27 07:31:43;;;;;;;1.80;1.70;;;;;;;;;;5010382;28;20175;-56
2023/03/27 07:34:09;;;;;;;1.93;1.50;;;;;;;;;;5009165;28;20209;-56
2023/03/27 07:36:35;;;;;;;2.60;1.30;;;;;;;;;;5017701;28;20173;-56
2023/03/27 07:39:02;;;;;;;3.83;1.70;;;;;;;;;;5014668;28;20668;-56
2023/03/27 07:41:31;;;;;;;2.27;1.43;;;;;;;;;;5013527;28;20189;-57
2023/03/27 07:43:58;;;;;;;4.17;1.40;;;;;;;;;;5009299;28;20675;-57
2023/03/27 07:46:25;;;;;;;4.23;1.70;;;;;;;;;;5009790;28;20186;-56
2023/03/27 07:48:51;;;;;;;3.03;1.37;;;;;;;;;;5009064;28;20201;-57
2023/03/27 07:51:17;;;;;;;2.33;1.67;;;;;;;;;;5007221;28;20256;-57
2023/03/27 07:53:43;;;;;;;2.67;1.30;;;;;;;;;;5002404;28;20198;-57
2023/03/27 07:56:10;;;;;;;2.77;1.60;;;;;;;;;;5021678;28;20182;-57
2023/03/27 07:58:36;;;;;;;1.70;1.30;;;;;;;;;;5011650;28;20228;-56
2023/03/27 08:01:03;;;;;;;2.57;1.60;;;;;;;;;;5010184;28;20182;-57
2023/03/27 08:03:29;;;;;;;2.90;1.37;;;;;;;;;;5008765;28;20186;-56
2023/03/27 08:05:56;;;;;;;4.77;1.53;;;;;;;;;;5009926;28;20236;-56
2023/03/27 08:08:23;;;;;;;2.73;1.63;;;;;;;;;;5009583;28;20190;-56
2023/03/27 08:10:50;;;;;;;2.33;1.90;;;;;;;;;;5008754;28;20302;-56
2023/03/27 08:13:17;;;;;;;2.47;1.77;;;;;;;;;;5003593;28;20359;-56
2023/03/27 08:15:43;;;;;;;3.57;1.50;;;;;;;;;;5010575;28;20188;-56
2023/03/27 08:18:10;;;;;;;2.13;1.30;;;;;;;;;;5008506;28;20615;-56
2023/03/27 08:20:36;;;;;;;1.70;1.40;;;;;;;;;;5007610;28;20226;-56
2023/03/27 08:23:03;;;;;;;3.17;1.40;;;;;;;;;;5007257;28;20642;-56
2023/03/27 08:25:31;;;;;;;2.57;1.40;;;;;;;;;;5003009;28;20225;-56
2023/03/27 08:27:58;;;;;;;3.03;1.50;;;;;;;;;;5004695;28;20685;-56
2023/03/27 08:30:24;;;;;;;2.77;1.87;;;;;;;;;;5003713;28;20187;-56
2023/03/27 08:32:50;;;;;;;1.70;1.37;;;;;;;;;;5007157;28;20182;-56
2023/03/27 08:35:17;;;;;;;3.60;1.70;;;;;;;;;;5016265;28;20573;-56
2023/03/27 08:37:43;;;;;;;2.20;1.20;;;;;;;;;;5008373;28;20228;-56
2023/03/27 08:40:18;;;;;;;5.00;1.50;;;;;;;;;;5017384;28;20184;-56
2023/03/27 08:42:45;;;;;;;4.07;1.63;;;;;;;;;;5001319;28;20263;-56
2023/03/27 08:45:14;;;;;;;3.37;1.40;;;;;;;;;;5008280;28;20191;-56
2023/03/27 08:47:44;;;;;;;4.17;1.70;;;;;;;;;;5007864;28;20179;-56
2023/03/27 08:50:29;;;;;;;3.93;1.67;;;;;;;;;;5008979;28;20538;-56
2023/03/27 08:52:57;;;;;;;5.03;1.40;;;;;;;;;;5008839;28;20236;-56
2023/03/27 08:55:37;;;;;;;1.10;1.10;;;;;;;;;;5009173;28;20174;-56
2023/03/27 08:58:03;;;;;;;5.43;1.70;;;;;;;;;;5012915;28;20986;-56
2023/03/27 09:00:38;;;;;;;4.83;1.93;;;;;;;;;;5006739;28;20190;-56
2023/03/27 09:03:10;;;;;;;4.77;2.70;;;;;;;;;;5010271;28;20182;-56
2023/03/27 09:05:44;;;;;;;3.00;1.90;;;;;;;;;;5011484;28;20217;-56
2023/03/27 09:08:36;;;;;;;2.87;1.70;;;;;;;;;;5018024;28;20525;-56
2023/03/27 09:11:02;;;;;;;3.30;1.50;;;;;;;;;;5009798;28;20767;-56
2023/03/27 09:13:33;;;;;;;3.37;1.40;;;;;;;;;;5012470;28;20186;-56
2023/03/27 09:15:59;;;;;;;4.13;1.83;;;;;;;;;;5011803;28;20662;-56
2023/03/27 09:18:37;;;;;;;2.80;1.63;;;;;;;;;;5010013;28;20217;-56
2023/03/27 09:21:10;;;;;;;2.70;1.20;;;;;;;;;;5010801;28;20222;-56
2023/03/27 09:23:42;;;;;;;3.87;1.73;;;;;;;;;;5017707;28;20207;-56
2023/03/27 09:26:17;;;;;;;4.93;1.63;;;;;;;;;;5015214;28;20213;-56
2023/03/27 09:28:44;;;;;;;4.73;1.47;;;;;;;;;;5012585;28;20163;-56
2023/03/27 09:31:20;;;;;;;4.53;1.77;;;;;;;;;;5012616;28;20709;-57
2023/03/27 09:33:46;;;;;;;4.73;1.90;;;;;;;;;;5011269;28;20189;-56
2023/03/27 09:36:12;;;;;;;3.30;2.07;;;;;;;;;;5012016;28;20185;-57
2023/03/27 09:38:41;;;;;;;2.37;1.97;;;;;;;;;;5012562;28;20186;-56
2023/03/27 09:41:12;;;;;;;4.40;2.37;;;;;;;;;;5015445;28;20607;-56
2023/03/27 09:43:45;;;;;;;2.27;1.90;;;;;;;;;;5012523;28;20202;-57
2023/03/27 09:46:16;;;;;;;6.10;2.10;;;;;;;;;;5012383;28;20179;-56
2023/03/27 09:48:46;;;;;;;3.27;1.80;;;;;;;;;;5011233;28;20179;-56
2023/03/27 09:51:31;;;;;;;4.90;1.70;;;;;;;;;;5011980;28;20638;-56
2023/03/27 09:53:57;;;;;;;2.40;1.73;;;;;;;;;;5012185;28;20512;-57
2023/03/27 09:56:24;;;;;;;3.57;2.00;;;;;;;;;;5016123;28;20186;-56
2023/03/27 09:58:50;;;;;;;2.97;1.57;;;;;;;;;;5016596;28;20206;-57
2023/03/27 10:01:21;;;;;;;4.90;2.10;;;;;;;;;;5010408;28;20269;-56
2023/03/27 10:03:51;;;;;;;6.33;2.43;;;;;;;;;;5003473;28;20666;-57
2023/03/27 10:06:28;;;;;;;6.77;2.00;;;;;;;;;;5011216;28;20187;-56
2023/03/27 10:08:55;;;;;;;4.70;2.37;;;;;;;;;;5011403;28;20577;-57
2023/03/27 10:11:39;;;;;;;3.83;1.83;;;;;;;;;;5019821;28;20673;-57
2023/03/27 10:14:15;;;;;;;4.27;1.67;;;;;;;;;;5023722;28;20550;-56
2023/03/27 10:16:41;;;;;;;5.10;1.70;;;;;;;;;;5015873;28;20183;-57
2023/03/27 10:19:19;;;;;;;3.50;2.13;;;;;;;;;;5001168;28;20190;-57
2023/03/27 10:21:45;;;;;;;3.93;2.10;;;;;;;;;;5011555;28;20233;-56
2023/03/27 10:24:31;;;;;;;4.33;2.10;;;;;;;;;;5011206;28;20614;-57
2023/03/27 10:26:59;;;;;;;6.03;2.10;;;;;;;;;;5012299;28;20186;-56
2023/03/27 10:29:33;;;;;;;4.23;1.80;;;;;;;;;;5011795;28;20170;-55
2023/03/27 10:32:00;;;;;;;5.90;1.97;;;;;;;;;;5014356;28;20181;-55
2023/03/27 10:34:28;;;;;;;7.07;2.03;;;;;;;;;;5010618;28;20182;-55
2023/03/27 10:36:54;;;;;;;4.93;1.90;;;;;;;;;;5011398;28;20183;-55
2023/03/27 10:39:23;;;;;;;2.80;1.80;;;;;;;;;;5010826;28;20265;-56
2023/03/27 10:41:50;;;;;;;3.40;1.60;;;;;;;;;;5012595;28;20329;-56
2023/03/27 10:44:18;;;;;;;2.33;1.67;;;;;;;;;;5006335;28;20207;-56
2023/03/27 10:46:44;;;;;;;3.47;1.70;;;;;;;;;;5007099;28;20548;-56
2023/03/27 10:49:10;;;;;;;5.70;2.20;;;;;;;;;;5005460;28;20194;-57
2023/03/27 10:51:55;;;;;;;4.53;1.80;;;;;;;;;;5008096;28;20186;-56
2023/03/27 10:54:30;;;;;;;3.63;1.20;;;;;;;;;;5008545;28;20559;-56
2023/03/27 10:57:17;;;;;;;5.27;1.70;;;;;;;;;;5003368;28;20174;-57
2023/03/27 10:59:55;;;;;;;2.90;1.50;;;;;;;;;;5011903;28;20197;-57
2023/03/27 11:02:42;;;;;;;2.07;1.30;;;;;;;;;;5009085;28;20188;-56
2023/03/27 11:05:11;;;;;;;2.07;1.33;;;;;;;;;;5006473;28;20226;-57
2023/03/27 11:07:41;;;;;;;1.93;1.40;;;;;;;;;;5007171;28;20206;-57
2023/03/27 11:10:10;;;;;;;1.30;1.10;;;;;;;;;;5008556;28;20193;-57
2023/03/27 11:12:37;;;;;;;1.57;1.10;;;;;;;;;;5015410;28;20674;-57
2023/03/27 11:15:14;;;;;;;2.53;1.40;;;;;;;;;;5008361;28;20190;-56
2023/03/27 11:17:48;;;;;;;1.90;1.20;;;;;;;;;;5007373;28;20554;-56
2023/03/27 11:20:19;;;;;;;2.87;1.20;;;;;;;;;;5006862;28;20230;-57
2023/03/27 11:22:50;;;;;;;1.30;1.20;;;;;;;;;;5009124;28;20214;-57
2023/03/27 11:25:19;;;;;;;1.10;1.00;;;;;;;;;;5004210;28;20242;-57
2023/03/27 11:27:49;;;;;;;2.43;1.20;;;;;;;;;;5011244;28;20652;-57
2023/03/27 11:30:24;;;;;;;1.83;1.00;;;;;;;;;;5008884;28;20538;-57
2023/03/27 11:33:04;;;;;;;1.63;1.53;;;;;;;;;;5004505;28;20692;-57
2023/03/27 11:35:36;;;;;;;1.83;1.50;;;;;;;;;;5002364;28;20225;-58
2023/03/27 11:38:05;;;;;;;1.27;1.17;;;;;;;;;;5007671;28;20182;-57
2023/03/27 11:40:34;;;;;;;1.23;1.13;;;;;;;;;;5002278;28;20194;-57
2023/03/27 11:43:00;;;;;;;1.27;1.10;;;;;;;;;;5006756;28;20248;-57
2023/03/27 11:45:29;;;;;;;1.20;1.10;;;;;;;;;;5006804;28;20523;-57
2023/03/27 11:48:14;;;;;;;2.17;1.20;;;;;;;;;;4995893;28;20174;-57
2023/03/27 11:50:43;;;;;;;1.07;1.00;;;;;;;;;;5009917;28;20606;-54
2023/03/27 11:53:28;;;;;;;3.07;1.17;;;;;;;;;;5007167;28;20190;-57
2023/03/27 11:56:14;;;;;;;1.47;1.20;;;;;;;;;;5008552;28;20175;-57
2023/03/27 11:58:52;;;;;;;0.93;0.93;;;;;;;;;;5004889;28;20843;-57
2023/03/27 12:01:25;;;;;;;1.60;1.43;;;;;;;;;;5005936;28;20186;-57
2023/03/27 12:04:10;;;;;;;2.70;1.30;;;;;;;;;;5001842;28;20753;-56
2023/03/27 12:06:55;;;;;;;1.20;1.10;;;;;;;;;;5005808;28;20190;-56
2023/03/27 12:09:40;;;;;;;1.43;1.00;;;;;;;;;;5007070;28;20182;-56
2023/03/27 12:12:16;;;;;;;1.87;1.20;;;;;;;;;;5004913;28;20285;-56
2023/03/27 12:14:51;;;;;;;2.60;1.00;;;;;;;;;;5004773;28;20661;-56
2023/03/27 12:17:24;;;;;;;0.90;0.90;;;;;;;;;;5005725;28;20576;-56
2023/03/27 12:19:54;;;;;;;1.37;1.27;;;;;;;;;;5001649;28;20484;-56
2023/03/27 12:22:26;;;;;;;1.80;1.70;;;;;;;;;;5005329;28;20288;-55
2023/03/27 12:24:58;;;;;;;0.90;0.90;;;;;;;;;;5007944;28;20696;-56
2023/03/27 12:27:39;;;;;;;0.90;0.90;;;;;;;;;;5006798;28;20171;-56
2023/03/27 12:30:22;;;;;;;1.10;0.90;;;;;;;;;;5006156;28;20175;-57
2023/03/27 12:32:58;;;;;;;0.93;0.93;;;;;;;;;;5003367;28;20227;-56
2023/03/27 12:35:26;;;;;;;1.10;1.00;;;;;;;;;;4999791;28;20178;-56
2023/03/27 12:38:00;;;;;;;1.10;1.10;;;;;;;;;;5007193;28;20237;-57
2023/03/27 12:40:40;;;;;;;1.00;0.90;;;;;;;;;;5002023;28;20188;-57
2023/03/27 12:43:25;;;;;;;3.90;1.10;;;;;;;;;;5000430;28;20181;-56
2023/03/27 12:46:06;;;;;;;1.30;1.20;;;;;;;;;;5013027;28;20260;-57
2023/03/27 12:48:33;;;;;;;1.50;1.10;;;;;;;;;;5014702;28;20178;-57
2023/03/27 12:50:59;;;;;;;1.00;0.90;;;;;;;;;;5004630;28;20189;-57
2023/03/27 12:53:29;;;;;;;1.53;1.43;;;;;;;;;;5005314;28;20549;-57
2023/03/27 12:56:11;;;;;;;2.07;1.77;;;;;;;;;;5001708;28;20237;-57
2023/03/27 12:58:37;;;;;;;3.47;1.70;;;;;;;;;;5001032;28;20212;-57
2023/03/27 13:01:06;;;;;;;3.43;1.37;;;;;;;;;;5005079;28;20175;-57
2023/03/27 13:06:55;;;;;;;2.67;1.60;;;;;;;;;;5002988;28;20561;-57
2023/03/27 13:09:27;;;;;;;2.33;1.60;;;;;;;;;;5008471;28;20637;-57
2023/03/27 13:12:05;;;;;;;1.30;1.20;;;;;;;;;;5003510;28;20569;-57
2023/03/27 13:14:50;;;;;;;2.63;1.80;;;;;;;;;;5005679;28;20229;-57
2023/03/27 13:17:28;;;;;;;2.63;1.37;;;;;;;;;;5002081;28;20567;-56
2023/03/27 13:20:15;;;;;;;2.03;1.50;;;;;;;;;;5001415;28;20186;-57
2023/03/27 13:23:00;;;;;;;1.53;1.20;;;;;;;;;;5006484;28;20202;-56
2023/03/27 13:25:41;;;;;;;7.23;2.43;;;;;;;;;;5000857;28;20218;-56
2023/03/27 13:28:07;;;;;;;1.70;1.30;;;;;;;;;;4999424;28;20258;-56
2023/03/27 13:30:55;;;;;;;3.27;1.57;;;;;;;;;;5006943;28;20981;-57
2023/03/27 13:33:30;;;;;;;1.40;1.10;;;;;;;;;;5000834;28;20568;-56
2023/03/27 13:36:13;;;;;;;2.20;1.70;;;;;;;;;;5005896;28;20181;-56
2023/03/27 13:38:44;;;;;;;3.23;1.60;;;;;;;;;;5002291;28;20178;-56
2023/03/27 13:41:28;;;;;;;2.80;1.70;;;;;;;;;;5002007;28;20175;-57
2023/03/27 13:43:55;;;;;;;4.10;2.00;;;;;;;;;;5008275;28;20197;-56
2023/03/27 13:46:23;;;;;;;4.30;2.37;;;;;;;;;;5006341;28;20377;-56
2023/03/27 13:48:55;;;;;;;3.50;1.80;;;;;;;;;;5011390;28;20681;-56
2023/03/27 13:51:27;;;;;;;6.87;2.37;;;;;;;;;;5013672;28;20177;-56
2023/03/27 13:54:02;;;;;;;5.30;2.47;;;;;;;;;;5006783;28;20814;-57
2023/03/27 13:56:28;;;;;;;4.27;1.87;;;;;;;;;;5002869;28;20194;-57
2023/03/27 13:59:13;;;;;;;9.23;2.60;;;;;;;;;;5002352;28;20166;-56
2023/03/27 14:01:39;;;;;;;4.67;2.33;;;;;;;;;;5006886;28;20240;-57
2023/03/27 14:04:11;;;;;;;3.30;1.97;;;;;;;;;;5005662;28;20194;-57
2023/03/27 14:06:56;;;;;;;2.73;1.53;;;;;;;;;;5009966;28;20241;-57
2023/03/27 14:09:41;;;;;;;3.07;1.67;;;;;;;;;;5020799;28;21027;-57
2023/03/27 14:12:45;;;;;;;3.10;1.80;;;;;;;;;;5006162;28;20593;-57
2023/03/27 14:15:20;;;;;;;3.40;1.60;;;;;;;;;;5022668;28;20185;-56
2023/03/27 14:17:58;;;;;;;4.83;2.13;;;;;;;;;;5022497;28;20180;-56
2023/03/27 14:20:44;;;;;;;4.83;1.67;;;;;;;;;;5014146;28;20218;-56
2023/03/27 14:23:16;;;;;;;2.20;2.00;;;;;;;;;;5003612;28;20670;-57
2023/03/27 14:25:48;;;;;;;3.47;2.00;;;;;;;;;;5005293;28;20178;-56
2023/03/27 14:28:35;;;;;;;2.17;1.80;;;;;;;;;;4999809;28;20182;-57
2023/03/27 14:31:05;;;;;;;2.23;1.43;;;;;;;;;;5005830;28;20191;-57
2023/03/27 14:33:31;;;;;;;2.33;1.70;;;;;;;;;;5013137;28;20279;-56
2023/03/27 14:36:02;;;;;;;1.63;1.20;;;;;;;;;;5009540;28;20684;-56
2023/03/27 14:38:37;;;;;;;1.87;1.27;;;;;;;;;;5010252;28;20531;-57
2023/03/27 14:41:04;;;;;;;2.80;1.63;;;;;;;;;;5009224;28;20244;-57
2023/03/27 14:43:30;;;;;;;1.33;1.20;;;;;;;;;;5008661;28;20234;-56
2023/03/27 14:46:04;;;;;;;2.63;1.23;;;;;;;;;;5011639;28;20181;-57
2023/03/27 14:48:30;;;;;;;1.37;1.20;;;;;;;;;;5009830;28;20201;-56
2023/03/27 14:51:00;;;;;;;2.53;1.23;;;;;;;;;;5018555;28;20220;-56
2023/03/27 14:53:28;;;;;;;1.53;1.20;;;;;;;;;;5011316;28;20178;-56
2023/03/27 14:55:54;;;;;;;2.03;1.43;;;;;;;;;;5008450;28;20229;-57
2023/03/27 14:58:22;;;;;;;3.63;1.70;;;;;;;;;;5005518;28;20276;-56
2023/03/27 15:00:55;;;;;;;2.40;1.40;;;;;;;;;;5008173;28;20536;-57
2023/03/27 15:03:23;;;;;;;2.43;1.70;;;;;;;;;;5008949;28;20206;-56
2023/03/27 15:05:56;;;;;;;1.63;1.50;;;;;;;;;;5009342;28;20197;-56